Flight Track Log - Related Links

Times and Time Zones

All times are in EDT time to prevent confusion due to time zone crossing. See the THY2476 flight status page for this flight to view local times or setup timezone preferences in your user account.


Time Position Orientation Groundspeed Altitude Reporting Facility
EDT Latitude Longitude Course Direction KTS MPH feet Rate Location/Type
Mon 07:10:00 PM 39.1600 31.9218 126° Southeast  Level Estimated
Mon 07:11:00 PM 39.0911 32.0335 128° Southeast  Level Estimated
Mon 07:12:00 PM 39.0222 32.1450 129° Southeast  Level Estimated
Mon 07:13:00 PM 38.9531 32.2562 129° Southeast  Level Estimated
Mon 07:14:00 PM 38.8839 32.3673 129° Southeast  Level Estimated
Mon 07:15:00 PM 38.8147 32.4781 129° Southeast  Level Estimated
Mon 07:16:00 PM 38.7453 32.5888 129° Southeast  Level Estimated
Mon 07:17:00 PM 38.6758 32.6992 129° Southeast  Level Estimated
Mon 07:18:00 PM 38.6063 32.8093 129° Southeast  Level Estimated
Mon 07:19:00 PM 38.5366 32.9193 129° Southeast  Level Estimated
Mon 07:20:00 PM 38.4668 33.0291 129° Southeast  Level Estimated
Mon 07:21:00 PM 38.3969 33.1386 129° Southeast  Level Estimated
Mon 07:22:00 PM 38.3269 33.2480 129° Southeast  Level Estimated
Mon 07:23:00 PM 38.2568 33.3571 129° Southeast  Level Estimated
Mon 07:24:00 PM 38.1866 33.4660 129° Southeast  Level Estimated
Mon 07:25:00 PM 38.1163 33.5747 129° Southeast  Level Estimated
Mon 07:26:00 PM 38.0459 33.6832 129° Southeast  Level Estimated
Mon 07:27:00 PM 37.9754 33.7915 130° Southeast  Level Estimated
Mon 07:28:00 PM 37.9049 33.8996 130° Southeast  Level Estimated
Mon 07:29:00 PM 37.8342 34.0075 130° Southeast  Level Estimated
Mon 07:30:00 PM 37.7634 34.1152 130° Southeast  Level Estimated
Mon 07:31:00 PM 37.6925 34.2226 130° Southeast  Level Estimated
Mon 07:32:00 PM 37.6215 34.3299 130° Southeast  Level Estimated
Mon 07:33:00 PM 37.5504 34.4369 130° Southeast  Level Estimated
Mon 07:34:00 PM 37.4792 34.5438 130° Southeast  Level Estimated
Mon 07:35:00 PM 37.4080 34.6504 130° Southeast  Level Estimated
Mon 07:36:00 PM 37.3366 34.7569 130° Southeast  Level Estimated
Mon 07:37:00 PM 37.2651 34.8631 130° Southeast  Level Estimated
Mon 07:38:00 PM 37.1936 34.9691 130° Southeast  Level Estimated
Mon 07:39:00 PM 37.1219 35.0750 130° Southeast  Level Estimated
Mon 07:40:00 PM 37.0502 35.1806 130° Southeast  Level Estimated
Mon 07:41:00 PM 36.9822 35.2804 130° Southeast  Level Estimated
Mon 07:42:00 PM 36.9822 35.2804 202° Southwest  Level Estimated
Mon 07:43:00 PM 36.9822 35.2804 202° Southwest  Level Estimated
Mon 07:44:00 PM 36.9822 35.2804 202° Southwest  Level Estimated
Mon 07:45:00 PM 36.9822 35.2804 202° Southwest  Level Estimated
Mon 07:46:00 PM 36.9822 35.2804 202° Southwest  Level Estimated

Login

Don't have an account? Register now (free) for customized features, flight alerts, and more!